sensor_id;sensor_type;location;lat;lon;timestamp;P1;durP1;ratioP1;P2;durP2;ratioP2
75890;SDS011;64571;47.512;19.054;2023-03-01T00:02:50;23.95;;;9.57;;
75890;SDS011;64571;47.512;19.054;2023-03-01T00:05:53;21.52;;;10.48;;
75890;SDS011;64571;47.512;19.054;2023-03-01T00:08:55;22.20;;;11.25;;
75890;SDS011;64571;47.512;19.054;2023-03-01T00:11:58;27.60;;;12.20;;
75890;SDS011;64571;47.512;19.054;2023-03-01T00:15:00;26.80;;;12.25;;
75890;SDS011;64571;47.512;19.054;2023-03-01T00:18:03;24.33;;;11.70;;
75890;SDS011;64571;47.512;19.054;2023-03-01T00:21:05;24.52;;;11.32;;
75890;SDS011;64571;47.512;19.054;2023-03-01T00:24:08;21.70;;;10.50;;
75890;SDS011;64571;47.512;19.054;2023-03-01T00:27:12;25.63;;;12.40;;
75890;SDS011;64571;47.512;19.054;2023-03-01T00:30:15;28.77;;;12.57;;
75890;SDS011;64571;47.512;19.054;2023-03-01T00:33:17;21.65;;;11.07;;
75890;SDS011;64571;47.512;19.054;2023-03-01T00:36:20;23.75;;;11.82;;
75890;SDS011;64571;47.512;19.054;2023-03-01T00:39:22;33.25;;;13.40;;
75890;SDS011;64571;47.512;19.054;2023-03-01T00:42:25;27.47;;;13.03;;
75890;SDS011;64571;47.512;19.054;2023-03-01T00:45:27;23.58;;;12.35;;
75890;SDS011;64571;47.512;19.054;2023-03-01T00:48:30;23.60;;;11.02;;
75890;SDS011;64571;47.512;19.054;2023-03-01T00:51:33;26.17;;;12.10;;
75890;SDS011;64571;47.512;19.054;2023-03-01T00:54:36;29.48;;;12.75;;
75890;SDS011;64571;47.512;19.054;2023-03-01T00:57:38;25.03;;;13.20;;
75890;SDS011;64571;47.512;19.054;2023-03-01T01:00:41;27.75;;;12.80;;
75890;SDS011;64571;47.512;19.054;2023-03-01T01:03:50;21.40;;;11.20;;
75890;SDS011;64571;47.512;19.054;2023-03-01T01:06:58;28.77;;;10.18;;
75890;SDS011;64571;47.512;19.054;2023-03-01T01:10:00;20.88;;;9.70;;
75890;SDS011;64571;47.512;19.054;2023-03-01T01:13:03;21.33;;;9.93;;
75890;SDS011;64571;47.512;19.054;2023-03-01T01:16:06;20.40;;;9.57;;
75890;SDS011;64571;47.512;19.054;2023-03-01T01:19:10;19.23;;;9.23;;
75890;SDS011;64571;47.512;19.054;2023-03-01T01:22:13;18.48;;;8.85;;
75890;SDS011;64571;47.512;19.054;2023-03-01T01:25:16;20.42;;;9.18;;
75890;SDS011;64571;47.512;19.054;2023-03-01T01:28:18;23.60;;;11.00;;
75890;SDS011;64571;47.512;19.054;2023-03-01T01:31:21;19.00;;;10.05;;
75890;SDS011;64571;47.512;19.054;2023-03-01T01:34:25;22.87;;;11.07;;
75890;SDS011;64571;47.512;19.054;2023-03-01T01:37:28;21.23;;;9.48;;
75890;SDS011;64571;47.512;19.054;2023-03-01T01:40:33;23.38;;;11.20;;
75890;SDS011;64571;47.512;19.054;2023-03-01T01:43:37;24.33;;;11.57;;
75890;SDS011;64571;47.512;19.054;2023-03-01T01:46:47;24.50;;;10.93;;
75890;SDS011;64571;47.512;19.054;2023-03-01T01:49:55;22.62;;;10.48;;
75890;SDS011;64571;47.512;19.054;2023-03-01T01:52:58;20.80;;;10.32;;
75890;SDS011;64571;47.512;19.054;2023-03-01T01:56:01;23.27;;;9.45;;
75890;SDS011;64571;47.512;19.054;2023-03-01T01:59:04;20.57;;;9.47;;
75890;SDS011;64571;47.512;19.054;2023-03-01T02:02:07;22.92;;;10.63;;
75890;SDS011;64571;47.512;19.054;2023-03-01T02:08:25;24.35;;;9.95;;
75890;SDS011;64571;47.512;19.054;2023-03-01T02:11:31;26.87;;;12.60;;
75890;SDS011;64571;47.512;19.054;2023-03-01T02:14:34;22.00;;;10.27;;
75890;SDS011;64571;47.512;19.054;2023-03-01T02:17:38;27.00;;;10.68;;
75890;SDS011;64571;47.512;19.054;2023-03-01T02:23:59;20.02;;;9.90;;
75890;SDS011;64571;47.512;19.054;2023-03-01T02:27:26;19.02;;;9.05;;
75890;SDS011;64571;47.512;19.054;2023-03-01T02:30:39;20.33;;;9.37;;
75890;SDS011;64571;47.512;19.054;2023-03-01T02:34:02;21.08;;;9.75;;
75890;SDS011;64571;47.512;19.054;2023-03-01T02:37:09;20.55;;;9.18;;
75890;SDS011;64571;47.512;19.054;2023-03-01T02:40:15;19.90;;;9.30;;
75890;SDS011;64571;47.512;19.054;2023-03-01T02:43:20;21.08;;;10.05;;
75890;SDS011;64571;47.512;19.054;2023-03-01T02:46:26;21.00;;;9.53;;
75890;SDS011;64571;47.512;19.054;2023-03-01T02:49:29;18.17;;;9.15;;
75890;SDS011;64571;47.512;19.054;2023-03-01T02:52:40;18.08;;;8.65;;
75890;SDS011;64571;47.512;19.054;2023-03-01T02:56:05;19.40;;;8.23;;
75890;SDS011;64571;47.512;19.054;2023-03-01T02:59:10;22.52;;;9.32;;
75890;SDS011;64571;47.512;19.054;2023-03-01T03:02:24;19.03;;;8.93;;
75890;SDS011;64571;47.512;19.054;2023-03-01T03:05:40;21.12;;;10.07;;
75890;SDS011;64571;47.512;19.054;2023-03-01T03:08:43;22.95;;;10.30;;
75890;SDS011;64571;47.512;19.054;2023-03-01T03:11:46;18.87;;;8.82;;
75890;SDS011;64571;47.512;19.054;2023-03-01T03:14:49;21.10;;;9.27;;
75890;SDS011;64571;47.512;19.054;2023-03-01T03:17:51;22.27;;;9.93;;
75890;SDS011;64571;47.512;19.054;2023-03-01T03:20:55;25.35;;;9.48;;
75890;SDS011;64571;47.512;19.054;2023-03-01T03:23:58;18.98;;;9.02;;
75890;SDS011;64571;47.512;19.054;2023-03-01T03:27:00;20.90;;;10.32;;
75890;SDS011;64571;47.512;19.054;2023-03-01T03:30:04;22.52;;;10.10;;
75890;SDS011;64571;47.512;19.054;2023-03-01T03:33:11;19.27;;;8.97;;
75890;SDS011;64571;47.512;19.054;2023-03-01T03:36:15;24.45;;;10.50;;
75890;SDS011;64571;47.512;19.054;2023-03-01T03:39:19;20.55;;;9.32;;
75890;SDS011;64571;47.512;19.054;2023-03-01T03:42:22;18.92;;;9.02;;
75890;SDS011;64571;47.512;19.054;2023-03-01T03:45:24;18.98;;;8.90;;
75890;SDS011;64571;47.512;19.054;2023-03-01T03:48:27;19.97;;;9.10;;
75890;SDS011;64571;47.512;19.054;2023-03-01T03:51:30;19.45;;;9.30;;
75890;SDS011;64571;47.512;19.054;2023-03-01T03:54:32;20.42;;;9.10;;
75890;SDS011;64571;47.512;19.054;2023-03-01T03:57:35;26.05;;;10.18;;
75890;SDS011;64571;47.512;19.054;2023-03-01T04:00:44;21.23;;;9.63;;
75890;SDS011;64571;47.512;19.054;2023-03-01T04:03:47;21.33;;;9.97;;
75890;SDS011;64571;47.512;19.054;2023-03-01T04:06:49;19.12;;;8.80;;
75890;SDS011;64571;47.512;19.054;2023-03-01T04:09:52;20.27;;;9.70;;
75890;SDS011;64571;47.512;19.054;2023-03-01T04:12:54;23.52;;;10.52;;
75890;SDS011;64571;47.512;19.054;2023-03-01T04:16:00;18.60;;;9.13;;
75890;SDS011;64571;47.512;19.054;2023-03-01T04:19:02;19.97;;;8.63;;
75890;SDS011;64571;47.512;19.054;2023-03-01T04:22:05;20.10;;;9.27;;
75890;SDS011;64571;47.512;19.054;2023-03-01T04:25:11;19.17;;;9.48;;
75890;SDS011;64571;47.512;19.054;2023-03-01T04:28:16;18.75;;;9.05;;
75890;SDS011;64571;47.512;19.054;2023-03-01T04:31:18;19.20;;;10.10;;
75890;SDS011;64571;47.512;19.054;2023-03-01T04:34:23;19.70;;;9.57;;
75890;SDS011;64571;47.512;19.054;2023-03-01T04:37:28;19.23;;;8.93;;
75890;SDS011;64571;47.512;19.054;2023-03-01T04:40:32;18.62;;;9.18;;
75890;SDS011;64571;47.512;19.054;2023-03-01T04:43:35;17.25;;;8.68;;
75890;SDS011;64571;47.512;19.054;2023-03-01T04:46:37;20.95;;;9.60;;
75890;SDS011;64571;47.512;19.054;2023-03-01T04:49:40;21.13;;;10.00;;
75890;SDS011;64571;47.512;19.054;2023-03-01T04:52:43;18.52;;;10.18;;
75890;SDS011;64571;47.512;19.054;2023-03-01T04:55:46;20.25;;;10.30;;
75890;SDS011;64571;47.512;19.054;2023-03-01T04:58:48;22.48;;;10.02;;
75890;SDS011;64571;47.512;19.054;2023-03-01T05:01:51;19.10;;;10.00;;
75890;SDS011;64571;47.512;19.054;2023-03-01T05:04:57;18.57;;;8.17;;
75890;SDS011;64571;47.512;19.054;2023-03-01T05:08:00;24.45;;;9.10;;
75890;SDS011;64571;47.512;19.054;2023-03-01T05:11:05;19.75;;;8.52;;
75890;SDS011;64571;47.512;19.054;2023-03-01T05:14:10;18.20;;;8.75;;
75890;SDS011;64571;47.512;19.054;2023-03-01T05:17:13;21.45;;;8.63;;
75890;SDS011;64571;47.512;19.054;2023-03-01T05:20:16;19.17;;;8.90;;
75890;SDS011;64571;47.512;19.054;2023-03-01T05:23:18;17.98;;;8.15;;
75890;SDS011;64571;47.512;19.054;2023-03-01T05:26:21;17.52;;;8.65;;
75890;SDS011;64571;47.512;19.054;2023-03-01T05:29:30;19.35;;;7.75;;
75890;SDS011;64571;47.512;19.054;2023-03-01T05:32:36;19.65;;;8.05;;
75890;SDS011;64571;47.512;19.054;2023-03-01T05:35:42;17.57;;;8.53;;
75890;SDS011;64571;47.512;19.054;2023-03-01T05:38:46;17.90;;;9.18;;
75890;SDS011;64571;47.512;19.054;2023-03-01T05:41:56;16.10;;;7.72;;
75890;SDS011;64571;47.512;19.054;2023-03-01T05:45:00;17.92;;;8.43;;
75890;SDS011;64571;47.512;19.054;2023-03-01T05:48:02;15.27;;;7.12;;
75890;SDS011;64571;47.512;19.054;2023-03-01T05:51:06;20.93;;;8.47;;
75890;SDS011;64571;47.512;19.054;2023-03-01T05:54:09;18.40;;;8.70;;
75890;SDS011;64571;47.512;19.054;2023-03-01T05:57:12;18.98;;;9.15;;
75890;SDS011;64571;47.512;19.054;2023-03-01T06:00:15;22.00;;;9.90;;
75890;SDS011;64571;47.512;19.054;2023-03-01T06:03:20;24.48;;;9.20;;
75890;SDS011;64571;47.512;19.054;2023-03-01T06:06:22;20.50;;;9.70;;
75890;SDS011;64571;47.512;19.054;2023-03-01T06:09:26;20.83;;;9.65;;
75890;SDS011;64571;47.512;19.054;2023-03-01T06:12:32;21.55;;;10.77;;
75890;SDS011;64571;47.512;19.054;2023-03-01T06:15:35;20.73;;;10.00;;
75890;SDS011;64571;47.512;19.054;2023-03-01T06:18:38;22.70;;;9.68;;
75890;SDS011;64571;47.512;19.054;2023-03-01T06:21:41;22.10;;;9.73;;
75890;SDS011;64571;47.512;19.054;2023-03-01T06:24:43;22.55;;;10.18;;
75890;SDS011;64571;47.512;19.054;2023-03-01T06:27:46;18.80;;;9.02;;
75890;SDS011;64571;47.512;19.054;2023-03-01T06:30:50;22.85;;;9.40;;
75890;SDS011;64571;47.512;19.054;2023-03-01T06:33:54;26.15;;;9.75;;
75890;SDS011;64571;47.512;19.054;2023-03-01T06:36:56;20.80;;;9.40;;
75890;SDS011;64571;47.512;19.054;2023-03-01T06:39:59;21.95;;;9.27;;
75890;SDS011;64571;47.512;19.054;2023-03-01T06:43:01;23.58;;;9.65;;
75890;SDS011;64571;47.512;19.054;2023-03-01T06:46:04;20.12;;;9.95;;
75890;SDS011;64571;47.512;19.054;2023-03-01T06:49:08;21.02;;;9.68;;
75890;SDS011;64571;47.512;19.054;2023-03-01T06:52:11;24.07;;;10.00;;
75890;SDS011;64571;47.512;19.054;2023-03-01T06:55:13;21.30;;;10.30;;
75890;SDS011;64571;47.512;19.054;2023-03-01T06:58:16;28.52;;;12.20;;
75890;SDS011;64571;47.512;19.054;2023-03-01T07:01:18;22.45;;;10.40;;
75890;SDS011;64571;47.512;19.054;2023-03-01T07:04:21;22.52;;;9.18;;
75890;SDS011;64571;47.512;19.054;2023-03-01T07:07:23;28.20;;;11.73;;
75890;SDS011;64571;47.512;19.054;2023-03-01T07:10:26;22.95;;;9.80;;
75890;SDS011;64571;47.512;19.054;2023-03-01T07:13:29;18.67;;;9.30;;
75890;SDS011;64571;47.512;19.054;2023-03-01T07:16:32;21.27;;;10.23;;
75890;SDS011;64571;47.512;19.054;2023-03-01T07:19:35;20.92;;;9.82;;
75890;SDS011;64571;47.512;19.054;2023-03-01T07:22:39;24.67;;;10.23;;
75890;SDS011;64571;47.512;19.054;2023-03-01T07:25:43;19.77;;;9.57;;
75890;SDS011;64571;47.512;19.054;2023-03-01T07:28:45;21.30;;;10.05;;
75890;SDS011;64571;47.512;19.054;2023-03-01T07:31:48;21.25;;;10.27;;
75890;SDS011;64571;47.512;19.054;2023-03-01T07:34:50;21.33;;;9.68;;
75890;SDS011;64571;47.512;19.054;2023-03-01T07:37:53;22.87;;;10.13;;
75890;SDS011;64571;47.512;19.054;2023-03-01T07:40:59;21.92;;;9.88;;
75890;SDS011;64571;47.512;19.054;2023-03-01T07:44:03;21.58;;;9.35;;
75890;SDS011;64571;47.512;19.054;2023-03-01T07:47:06;23.38;;;9.75;;
75890;SDS011;64571;47.512;19.054;2023-03-01T07:50:09;20.62;;;10.05;;
75890;SDS011;64571;47.512;19.054;2023-03-01T07:53:12;28.17;;;9.90;;
75890;SDS011;64571;47.512;19.054;2023-03-01T07:56:14;19.95;;;8.82;;
75890;SDS011;64571;47.512;19.054;2023-03-01T07:59:22;24.20;;;10.00;;
75890;SDS011;64571;47.512;19.054;2023-03-01T08:02:30;19.98;;;8.20;;
75890;SDS011;64571;47.512;19.054;2023-03-01T08:05:33;25.70;;;10.80;;
75890;SDS011;64571;47.512;19.054;2023-03-01T08:08:36;20.60;;;9.37;;
75890;SDS011;64571;47.512;19.054;2023-03-01T08:11:39;18.05;;;8.32;;
75890;SDS011;64571;47.512;19.054;2023-03-01T08:14:41;23.20;;;10.95;;
75890;SDS011;64571;47.512;19.054;2023-03-01T08:17:44;18.65;;;8.55;;
75890;SDS011;64571;47.512;19.054;2023-03-01T08:20:46;17.65;;;8.40;;
75890;SDS011;64571;47.512;19.054;2023-03-01T08:23:50;19.00;;;9.13;;
75890;SDS011;64571;47.512;19.054;2023-03-01T08:26:53;20.37;;;9.43;;
75890;SDS011;64571;47.512;19.054;2023-03-01T08:29:57;17.60;;;8.43;;
75890;SDS011;64571;47.512;19.054;2023-03-01T08:33:00;20.73;;;8.70;;
75890;SDS011;64571;47.512;19.054;2023-03-01T08:36:04;20.37;;;8.82;;
75890;SDS011;64571;47.512;19.054;2023-03-01T08:39:10;17.43;;;8.33;;
75890;SDS011;64571;47.512;19.054;2023-03-01T08:42:14;17.02;;;8.50;;
75890;SDS011;64571;47.512;19.054;2023-03-01T08:45:16;18.73;;;9.35;;
75890;SDS011;64571;47.512;19.054;2023-03-01T08:48:20;19.73;;;8.70;;
75890;SDS011;64571;47.512;19.054;2023-03-01T08:51:23;21.37;;;8.55;;
75890;SDS011;64571;47.512;19.054;2023-03-01T08:54:26;21.03;;;9.40;;
75890;SDS011;64571;47.512;19.054;2023-03-01T08:57:29;19.33;;;8.82;;
75890;SDS011;64571;47.512;19.054;2023-03-01T09:00:32;20.95;;;9.93;;
75890;SDS011;64571;47.512;19.054;2023-03-01T09:03:36;20.92;;;9.15;;
75890;SDS011;64571;47.512;19.054;2023-03-01T09:06:39;19.65;;;9.55;;
75890;SDS011;64571;47.512;19.054;2023-03-01T09:09:42;21.30;;;10.17;;
75890;SDS011;64571;47.512;19.054;2023-03-01T09:12:45;17.42;;;9.13;;
75890;SDS011;64571;47.512;19.054;2023-03-01T09:15:47;15.98;;;8.63;;
75890;SDS011;64571;47.512;19.054;2023-03-01T09:18:51;18.08;;;8.75;;
75890;SDS011;64571;47.512;19.054;2023-03-01T09:21:54;20.02;;;9.00;;
75890;SDS011;64571;47.512;19.054;2023-03-01T09:24:58;17.07;;;8.80;;
75890;SDS011;64571;47.512;19.054;2023-03-01T09:28:01;21.83;;;9.40;;
75890;SDS011;64571;47.512;19.054;2023-03-01T09:31:04;27.35;;;11.18;;
75890;SDS011;64571;47.512;19.054;2023-03-01T09:34:06;21.17;;;9.38;;
75890;SDS011;64571;47.512;19.054;2023-03-01T09:37:09;20.50;;;9.27;;
75890;SDS011;64571;47.512;19.054;2023-03-01T09:40:13;20.83;;;9.53;;
75890;SDS011;64571;47.512;19.054;2023-03-01T09:46:25;25.50;;;10.38;;
75890;SDS011;64571;47.512;19.054;2023-03-01T09:49:39;18.37;;;9.45;;
75890;SDS011;64571;47.512;19.054;2023-03-01T09:52:53;21.85;;;9.23;;
75890;SDS011;64571;47.512;19.054;2023-03-01T09:56:00;17.53;;;8.30;;
75890;SDS011;64571;47.512;19.054;2023-03-01T09:59:14;19.67;;;9.38;;
75890;SDS011;64571;47.512;19.054;2023-03-01T10:05:43;21.95;;;9.60;;
75890;SDS011;64571;47.512;19.054;2023-03-01T10:09:01;18.12;;;9.07;;
75890;SDS011;64571;47.512;19.054;2023-03-01T10:12:20;20.33;;;10.47;;
75890;SDS011;64571;47.512;19.054;2023-03-01T10:15:30;23.00;;;10.43;;
75890;SDS011;64571;47.512;19.054;2023-03-01T10:18:40;19.85;;;10.20;;
75890;SDS011;64571;47.512;19.054;2023-03-01T10:21:44;18.90;;;10.85;;
75890;SDS011;64571;47.512;19.054;2023-03-01T10:24:48;22.50;;;9.85;;
75890;SDS011;64571;47.512;19.054;2023-03-01T10:27:53;22.10;;;10.13;;
75890;SDS011;64571;47.512;19.054;2023-03-01T10:30:59;22.87;;;9.80;;
75890;SDS011;64571;47.512;19.054;2023-03-01T10:34:02;24.05;;;10.93;;
75890;SDS011;64571;47.512;19.054;2023-03-01T10:37:14;22.40;;;10.00;;
75890;SDS011;64571;47.512;19.054;2023-03-01T10:40:17;25.42;;;10.23;;
75890;SDS011;64571;47.512;19.054;2023-03-01T10:43:21;21.63;;;10.63;;
75890;SDS011;64571;47.512;19.054;2023-03-01T10:46:31;20.05;;;9.90;;
75890;SDS011;64571;47.512;19.054;2023-03-01T10:49:35;24.02;;;9.90;;
75890;SDS011;64571;47.512;19.054;2023-03-01T10:52:40;24.25;;;11.95;;
75890;SDS011;64571;47.512;19.054;2023-03-01T10:55:44;20.60;;;10.57;;
75890;SDS011;64571;47.512;19.054;2023-03-01T10:59:05;21.30;;;10.63;;
75890;SDS011;64571;47.512;19.054;2023-03-01T11:02:28;21.55;;;10.00;;
75890;SDS011;64571;47.512;19.054;2023-03-01T11:05:32;19.65;;;10.60;;
75890;SDS011;64571;47.512;19.054;2023-03-01T11:11:38;20.17;;;9.90;;
75890;SDS011;64571;47.512;19.054;2023-03-01T11:14:53;19.47;;;10.37;;
75890;SDS011;64571;47.512;19.054;2023-03-01T11:17:57;19.48;;;9.30;;
75890;SDS011;64571;47.512;19.054;2023-03-01T11:21:15;18.40;;;8.55;;
75890;SDS011;64571;47.512;19.054;2023-03-01T11:24:18;19.87;;;10.18;;
75890;SDS011;64571;47.512;19.054;2023-03-01T11:27:29;18.48;;;9.65;;
75890;SDS011;64571;47.512;19.054;2023-03-01T11:30:46;18.27;;;9.53;;
75890;SDS011;64571;47.512;19.054;2023-03-01T11:34:11;20.92;;;10.65;;
75890;SDS011;64571;47.512;19.054;2023-03-01T11:37:41;23.48;;;9.70;;
75890;SDS011;64571;47.512;19.054;2023-03-01T11:41:10;21.42;;;9.10;;
75890;SDS011;64571;47.512;19.054;2023-03-01T11:44:22;22.52;;;10.48;;
75890;SDS011;64571;47.512;19.054;2023-03-01T11:50:41;16.77;;;9.13;;
75890;SDS011;64571;47.512;19.054;2023-03-01T11:53:57;17.02;;;9.18;;
75890;SDS011;64571;47.512;19.054;2023-03-01T12:03:51;16.30;;;8.10;;
75890;SDS011;64571;47.512;19.054;2023-03-01T12:07:00;15.68;;;8.52;;
75890;SDS011;64571;47.512;19.054;2023-03-01T12:11:22;17.92;;;7.70;;
75890;SDS011;64571;47.512;19.054;2023-03-01T12:20:52;17.80;;;8.23;;
75890;SDS011;64571;47.512;19.054;2023-03-01T12:52:24;15.48;;;7.35;;
75890;SDS011;64571;47.512;19.054;2023-03-01T12:55:38;13.97;;;6.80;;
75890;SDS011;64571;47.512;19.054;2023-03-01T12:59:03;15.02;;;6.80;;
75890;SDS011;64571;47.512;19.054;2023-03-01T13:02:27;15.85;;;6.80;;
75890;SDS011;64571;47.512;19.054;2023-03-01T13:05:42;14.15;;;6.82;;
75890;SDS011;64571;47.512;19.054;2023-03-01T13:09:00;14.50;;;6.65;;
75890;SDS011;64571;47.512;19.054;2023-03-01T13:15:50;14.63;;;6.55;;
75890;SDS011;64571;47.512;19.054;2023-03-01T13:22:34;18.12;;;7.45;;
75890;SDS011;64571;47.512;19.054;2023-03-01T13:26:01;14.52;;;7.35;;
75890;SDS011;64571;47.512;19.054;2023-03-01T13:29:11;12.03;;;6.10;;
75890;SDS011;64571;47.512;19.054;2023-03-01T13:32:32;13.50;;;6.53;;
75890;SDS011;64571;47.512;19.054;2023-03-01T13:35:45;12.93;;;5.45;;
75890;SDS011;64571;47.512;19.054;2023-03-01T13:38:54;10.25;;;5.32;;
75890;SDS011;64571;47.512;19.054;2023-03-01T13:41:57;12.35;;;5.30;;
75890;SDS011;64571;47.512;19.054;2023-03-01T13:45:02;10.87;;;5.10;;
75890;SDS011;64571;47.512;19.054;2023-03-01T13:48:18;13.25;;;6.03;;
75890;SDS011;64571;47.512;19.054;2023-03-01T13:51:27;14.80;;;5.80;;
75890;SDS011;64571;47.512;19.054;2023-03-01T13:54:30;11.30;;;6.07;;
75890;SDS011;64571;47.512;19.054;2023-03-01T13:57:37;13.77;;;6.00;;
75890;SDS011;64571;47.512;19.054;2023-03-01T14:00:43;10.50;;;4.53;;
75890;SDS011;64571;47.512;19.054;2023-03-01T14:03:45;10.43;;;5.30;;
75890;SDS011;64571;47.512;19.054;2023-03-01T14:06:48;11.23;;;5.57;;
75890;SDS011;64571;47.512;19.054;2023-03-01T14:09:52;10.90;;;4.72;;
75890;SDS011;64571;47.512;19.054;2023-03-01T14:19:35;10.10;;;4.57;;
75890;SDS011;64571;47.512;19.054;2023-03-01T14:22:40;11.05;;;3.87;;
75890;SDS011;64571;47.512;19.054;2023-03-01T14:25:48;11.40;;;4.90;;
75890;SDS011;64571;47.512;19.054;2023-03-01T14:28:52;10.38;;;4.50;;
75890;SDS011;64571;47.512;19.054;2023-03-01T14:31:55;12.57;;;4.90;;
75890;SDS011;64571;47.512;19.054;2023-03-01T14:38:40;15.25;;;4.57;;
75890;SDS011;64571;47.512;19.054;2023-03-01T14:41:44;8.85;;;4.37;;
75890;SDS011;64571;47.512;19.054;2023-03-01T14:44:47;14.18;;;4.35;;
75890;SDS011;64571;47.512;19.054;2023-03-01T14:47:53;9.67;;;4.60;;
75890;SDS011;64571;47.512;19.054;2023-03-01T14:50:58;11.88;;;4.50;;
75890;SDS011;64571;47.512;19.054;2023-03-01T14:54:02;9.02;;;4.18;;
75890;SDS011;64571;47.512;19.054;2023-03-01T14:57:12;11.40;;;4.20;;
75890;SDS011;64571;47.512;19.054;2023-03-01T15:00:22;11.95;;;4.55;;
75890;SDS011;64571;47.512;19.054;2023-03-01T15:03:48;12.77;;;4.70;;
75890;SDS011;64571;47.512;19.054;2023-03-01T15:06:53;11.27;;;4.80;;
75890;SDS011;64571;47.512;19.054;2023-03-01T15:09:58;9.60;;;4.10;;
75890;SDS011;64571;47.512;19.054;2023-03-01T15:13:11;10.48;;;4.30;;
75890;SDS011;64571;47.512;19.054;2023-03-01T15:16:16;11.63;;;4.28;;
75890;SDS011;64571;47.512;19.054;2023-03-01T15:19:22;11.47;;;3.83;;
75890;SDS011;64571;47.512;19.054;2023-03-01T15:22:29;13.48;;;5.32;;
75890;SDS011;64571;47.512;19.054;2023-03-01T15:25:32;9.25;;;3.97;;
75890;SDS011;64571;47.512;19.054;2023-03-01T15:28:37;19.92;;;5.50;;
75890;SDS011;64571;47.512;19.054;2023-03-01T15:31:54;10.27;;;4.12;;
75890;SDS011;64571;47.512;19.054;2023-03-01T15:38:58;12.40;;;4.40;;
75890;SDS011;64571;47.512;19.054;2023-03-01T15:42:01;10.10;;;4.00;;
75890;SDS011;64571;47.512;19.054;2023-03-01T15:45:38;12.10;;;3.87;;
75890;SDS011;64571;47.512;19.054;2023-03-01T15:48:35;10.57;;;4.55;;
75890;SDS011;64571;47.512;19.054;2023-03-01T15:51:38;11.30;;;5.30;;
75890;SDS011;64571;47.512;19.054;2023-03-01T15:54:41;19.30;;;4.18;;
75890;SDS011;64571;47.512;19.054;2023-03-01T15:57:44;10.23;;;4.35;;
75890;SDS011;64571;47.512;19.054;2023-03-01T16:00:47;11.77;;;3.35;;
75890;SDS011;64571;47.512;19.054;2023-03-01T16:04:02;13.93;;;4.18;;
75890;SDS011;64571;47.512;19.054;2023-03-01T16:07:05;10.40;;;3.80;;
75890;SDS011;64571;47.512;19.054;2023-03-01T16:10:08;7.70;;;3.70;;
75890;SDS011;64571;47.512;19.054;2023-03-01T16:13:13;9.98;;;3.53;;
75890;SDS011;64571;47.512;19.054;2023-03-01T16:16:16;11.65;;;4.50;;
75890;SDS011;64571;47.512;19.054;2023-03-01T16:19:19;9.15;;;3.90;;
75890;SDS011;64571;47.512;19.054;2023-03-01T16:22:22;11.33;;;4.20;;
75890;SDS011;64571;47.512;19.054;2023-03-01T16:25:27;11.18;;;3.97;;
75890;SDS011;64571;47.512;19.054;2023-03-01T16:28:31;12.93;;;6.15;;
75890;SDS011;64571;47.512;19.054;2023-03-01T16:31:33;11.27;;;5.07;;
75890;SDS011;64571;47.512;19.054;2023-03-01T16:34:36;17.42;;;4.37;;
75890;SDS011;64571;47.512;19.054;2023-03-01T16:37:39;10.27;;;4.13;;
75890;SDS011;64571;47.512;19.054;2023-03-01T16:40:43;9.02;;;4.47;;
75890;SDS011;64571;47.512;19.054;2023-03-01T16:43:50;13.62;;;5.20;;
75890;SDS011;64571;47.512;19.054;2023-03-01T16:46:53;12.80;;;4.75;;
75890;SDS011;64571;47.512;19.054;2023-03-01T16:49:55;12.20;;;4.72;;
75890;SDS011;64571;47.512;19.054;2023-03-01T16:52:58;13.43;;;4.90;;
75890;SDS011;64571;47.512;19.054;2023-03-01T16:56:02;12.35;;;4.65;;
75890;SDS011;64571;47.512;19.054;2023-03-01T16:59:06;9.85;;;4.60;;
75890;SDS011;64571;47.512;19.054;2023-03-01T17:02:10;14.40;;;5.15;;
75890;SDS011;64571;47.512;19.054;2023-03-01T17:05:14;11.10;;;5.18;;
75890;SDS011;64571;47.512;19.054;2023-03-01T17:08:17;15.87;;;5.07;;
75890;SDS011;64571;47.512;19.054;2023-03-01T17:11:20;10.80;;;4.62;;
75890;SDS011;64571;47.512;19.054;2023-03-01T17:14:22;9.25;;;4.12;;
75890;SDS011;64571;47.512;19.054;2023-03-01T17:17:25;8.75;;;3.92;;
75890;SDS011;64571;47.512;19.054;2023-03-01T17:20:28;9.77;;;4.03;;
75890;SDS011;64571;47.512;19.054;2023-03-01T17:23:31;13.27;;;5.70;;
75890;SDS011;64571;47.512;19.054;2023-03-01T17:26:34;10.77;;;4.85;;
75890;SDS011;64571;47.512;19.054;2023-03-01T17:29:38;12.35;;;4.68;;
75890;SDS011;64571;47.512;19.054;2023-03-01T17:32:41;11.45;;;4.82;;
75890;SDS011;64571;47.512;19.054;2023-03-01T17:35:44;12.57;;;4.53;;
75890;SDS011;64571;47.512;19.054;2023-03-01T17:38:48;13.97;;;5.37;;
75890;SDS011;64571;47.512;19.054;2023-03-01T17:41:51;13.30;;;5.00;;
75890;SDS011;64571;47.512;19.054;2023-03-01T17:44:54;11.77;;;5.00;;
75890;SDS011;64571;47.512;19.054;2023-03-01T17:47:56;11.98;;;5.43;;
75890;SDS011;64571;47.512;19.054;2023-03-01T17:50:59;12.85;;;5.30;;
75890;SDS011;64571;47.512;19.054;2023-03-01T17:54:01;14.13;;;5.20;;
75890;SDS011;64571;47.512;19.054;2023-03-01T17:57:04;16.48;;;5.57;;
75890;SDS011;64571;47.512;19.054;2023-03-01T18:00:11;17.00;;;5.68;;
75890;SDS011;64571;47.512;19.054;2023-03-01T18:03:15;12.32;;;5.50;;
75890;SDS011;64571;47.512;19.054;2023-03-01T18:06:20;13.15;;;5.75;;
75890;SDS011;64571;47.512;19.054;2023-03-01T18:09:26;16.27;;;6.23;;
75890;SDS011;64571;47.512;19.054;2023-03-01T18:12:29;19.87;;;7.22;;
75890;SDS011;64571;47.512;19.054;2023-03-01T18:15:33;15.90;;;6.95;;
75890;SDS011;64571;47.512;19.054;2023-03-01T18:18:36;16.17;;;6.53;;
75890;SDS011;64571;47.512;19.054;2023-03-01T18:21:39;16.40;;;6.97;;
75890;SDS011;64571;47.512;19.054;2023-03-01T18:24:42;14.13;;;6.53;;
75890;SDS011;64571;47.512;19.054;2023-03-01T18:27:46;16.73;;;6.50;;
75890;SDS011;64571;47.512;19.054;2023-03-01T18:30:48;15.25;;;7.12;;
75890;SDS011;64571;47.512;19.054;2023-03-01T18:33:51;17.55;;;8.30;;
75890;SDS011;64571;47.512;19.054;2023-03-01T18:36:56;34.17;;;13.57;;
75890;SDS011;64571;47.512;19.054;2023-03-01T18:40:10;46.43;;;22.80;;
75890;SDS011;64571;47.512;19.054;2023-03-01T18:43:14;20.33;;;8.65;;
75890;SDS011;64571;47.512;19.054;2023-03-01T18:46:17;16.55;;;8.43;;
75890;SDS011;64571;47.512;19.054;2023-03-01T18:49:21;18.77;;;8.23;;
75890;SDS011;64571;47.512;19.054;2023-03-01T18:52:24;19.27;;;8.82;;
75890;SDS011;64571;47.512;19.054;2023-03-01T18:55:26;19.87;;;9.43;;
75890;SDS011;64571;47.512;19.054;2023-03-01T18:58:29;21.83;;;9.70;;
75890;SDS011;64571;47.512;19.054;2023-03-01T19:01:31;29.48;;;10.65;;
75890;SDS011;64571;47.512;19.054;2023-03-01T19:04:38;22.08;;;10.05;;
75890;SDS011;64571;47.512;19.054;2023-03-01T19:07:41;24.25;;;9.15;;
75890;SDS011;64571;47.512;19.054;2023-03-01T19:10:44;27.20;;;10.77;;
75890;SDS011;64571;47.512;19.054;2023-03-01T19:13:46;23.20;;;11.10;;
75890;SDS011;64571;47.512;19.054;2023-03-01T19:16:52;21.25;;;9.75;;
75890;SDS011;64571;47.512;19.054;2023-03-01T19:19:58;21.35;;;10.50;;
75890;SDS011;64571;47.512;19.054;2023-03-01T19:23:01;27.17;;;10.20;;
75890;SDS011;64571;47.512;19.054;2023-03-01T19:26:04;22.00;;;10.27;;